sensor_id;sensor_type;location;lat;lon;timestamp;P1;durP1;ratioP1;P2;durP2;ratioP2
79480;SDS011;68944;48.262;14.208;2023-04-25T00:01:20;6.22;;;1.98;;
79480;SDS011;68944;48.262;14.208;2023-04-25T00:03:49;5.90;;;1.80;;
79480;SDS011;68944;48.262;14.208;2023-04-25T00:06:15;6.45;;;1.92;;
79480;SDS011;68944;48.262;14.208;2023-04-25T00:08:40;5.63;;;1.90;;
79480;SDS011;68944;48.262;14.208;2023-04-25T00:11:06;10.90;;;4.00;;
79480;SDS011;68944;48.262;14.208;2023-04-25T00:13:32;5.43;;;2.00;;
79480;SDS011;68944;48.262;14.208;2023-04-25T00:15:57;7.10;;;2.00;;
79480;SDS011;68944;48.262;14.208;2023-04-25T00:18:23;8.90;;;2.58;;
79480;SDS011;68944;48.262;14.208;2023-04-25T00:20:49;6.15;;;2.10;;
79480;SDS011;68944;48.262;14.208;2023-04-25T00:23:18;6.25;;;2.25;;
79480;SDS011;68944;48.262;14.208;2023-04-25T00:25:44;6.60;;;2.35;;
79480;SDS011;68944;48.262;14.208;2023-04-25T00:28:10;6.05;;;2.10;;
79480;SDS011;68944;48.262;14.208;2023-04-25T00:30:37;6.38;;;2.17;;
79480;SDS011;68944;48.262;14.208;2023-04-25T00:33:02;5.47;;;2.05;;
79480;SDS011;68944;48.262;14.208;2023-04-25T00:35:28;6.00;;;1.88;;
79480;SDS011;68944;48.262;14.208;2023-04-25T00:37:54;4.75;;;1.67;;
79480;SDS011;68944;48.262;14.208;2023-04-25T00:40:20;5.55;;;2.05;;
79480;SDS011;68944;48.262;14.208;2023-04-25T00:42:46;6.25;;;2.42;;
79480;SDS011;68944;48.262;14.208;2023-04-25T00:45:12;5.10;;;2.00;;
79480;SDS011;68944;48.262;14.208;2023-04-25T00:47:40;6.55;;;2.22;;
79480;SDS011;68944;48.262;14.208;2023-04-25T00:50:07;7.38;;;2.00;;
79480;SDS011;68944;48.262;14.208;2023-04-25T00:52:33;5.90;;;2.30;;
79480;SDS011;68944;48.262;14.208;2023-04-25T00:54:59;7.35;;;2.13;;
79480;SDS011;68944;48.262;14.208;2023-04-25T00:57:25;5.63;;;2.03;;
79480;SDS011;68944;48.262;14.208;2023-04-25T00:59:51;10.65;;;2.47;;
79480;SDS011;68944;48.262;14.208;2023-04-25T01:02:18;6.22;;;2.53;;
79480;SDS011;68944;48.262;14.208;2023-04-25T01:04:45;5.75;;;2.15;;
79480;SDS011;68944;48.262;14.208;2023-04-25T01:07:15;6.97;;;2.20;;
79480;SDS011;68944;48.262;14.208;2023-04-25T01:09:41;6.20;;;2.10;;
79480;SDS011;68944;48.262;14.208;2023-04-25T01:12:07;5.90;;;2.40;;
79480;SDS011;68944;48.262;14.208;2023-04-25T01:14:33;7.32;;;2.30;;
79480;SDS011;68944;48.262;14.208;2023-04-25T01:16:58;5.60;;;2.28;;
79480;SDS011;68944;48.262;14.208;2023-04-25T01:19:27;5.90;;;2.35;;
79480;SDS011;68944;48.262;14.208;2023-04-25T01:21:53;7.22;;;2.28;;
79480;SDS011;68944;48.262;14.208;2023-04-25T01:24:19;5.80;;;2.13;;
79480;SDS011;68944;48.262;14.208;2023-04-25T01:26:44;6.22;;;2.30;;
79480;SDS011;68944;48.262;14.208;2023-04-25T01:29:16;7.35;;;2.53;;
79480;SDS011;68944;48.262;14.208;2023-04-25T01:31:42;5.63;;;2.10;;
79480;SDS011;68944;48.262;14.208;2023-04-25T01:34:09;6.43;;;2.30;;
79480;SDS011;68944;48.262;14.208;2023-04-25T01:36:35;6.03;;;2.45;;
79480;SDS011;68944;48.262;14.208;2023-04-25T01:39:01;6.20;;;2.40;;
79480;SDS011;68944;48.262;14.208;2023-04-25T01:41:27;7.50;;;2.70;;
79480;SDS011;68944;48.262;14.208;2023-04-25T01:43:54;6.07;;;2.30;;
79480;SDS011;68944;48.262;14.208;2023-04-25T01:46:20;5.78;;;2.50;;
79480;SDS011;68944;48.262;14.208;2023-04-25T01:48:46;6.30;;;2.40;;
79480;SDS011;68944;48.262;14.208;2023-04-25T01:51:12;7.00;;;2.67;;
79480;SDS011;68944;48.262;14.208;2023-04-25T01:53:38;8.27;;;2.63;;
79480;SDS011;68944;48.262;14.208;2023-04-25T01:56:04;7.13;;;2.53;;
79480;SDS011;68944;48.262;14.208;2023-04-25T01:58:33;6.38;;;2.33;;
79480;SDS011;68944;48.262;14.208;2023-04-25T02:01:01;6.85;;;2.80;;
79480;SDS011;68944;48.262;14.208;2023-04-25T02:03:33;6.32;;;2.53;;
79480;SDS011;68944;48.262;14.208;2023-04-25T02:06:01;6.45;;;2.50;;
79480;SDS011;68944;48.262;14.208;2023-04-25T02:08:29;7.53;;;2.63;;
79480;SDS011;68944;48.262;14.208;2023-04-25T02:10:56;6.70;;;2.58;;
79480;SDS011;68944;48.262;14.208;2023-04-25T02:13:23;6.43;;;2.28;;
79480;SDS011;68944;48.262;14.208;2023-04-25T02:15:49;6.82;;;2.70;;
79480;SDS011;68944;48.262;14.208;2023-04-25T02:18:17;6.88;;;2.85;;
79480;SDS011;68944;48.262;14.208;2023-04-25T02:20:43;6.30;;;2.47;;
79480;SDS011;68944;48.262;14.208;2023-04-25T02:23:09;8.05;;;2.83;;
79480;SDS011;68944;48.262;14.208;2023-04-25T02:25:34;5.97;;;2.60;;
79480;SDS011;68944;48.262;14.208;2023-04-25T02:28:00;8.77;;;2.65;;
79480;SDS011;68944;48.262;14.208;2023-04-25T02:30:25;7.28;;;2.53;;
79480;SDS011;68944;48.262;14.208;2023-04-25T02:32:51;9.50;;;2.83;;
79480;SDS011;68944;48.262;14.208;2023-04-25T02:35:17;5.75;;;2.42;;
79480;SDS011;68944;48.262;14.208;2023-04-25T02:37:43;7.68;;;2.60;;
79480;SDS011;68944;48.262;14.208;2023-04-25T02:40:08;7.78;;;3.00;;
79480;SDS011;68944;48.262;14.208;2023-04-25T02:42:34;7.38;;;3.40;;
79480;SDS011;68944;48.262;14.208;2023-04-25T02:45:00;7.97;;;3.50;;
79480;SDS011;68944;48.262;14.208;2023-04-25T02:47:26;6.32;;;2.97;;
79480;SDS011;68944;48.262;14.208;2023-04-25T02:49:52;8.68;;;3.28;;
79480;SDS011;68944;48.262;14.208;2023-04-25T02:52:17;6.47;;;2.80;;
79480;SDS011;68944;48.262;14.208;2023-04-25T02:54:50;6.57;;;2.38;;
79480;SDS011;68944;48.262;14.208;2023-04-25T02:57:16;8.35;;;2.53;;
79480;SDS011;68944;48.262;14.208;2023-04-25T02:59:41;6.88;;;2.60;;
79480;SDS011;68944;48.262;14.208;2023-04-25T03:02:07;6.03;;;2.63;;
79480;SDS011;68944;48.262;14.208;2023-04-25T03:04:33;5.85;;;2.40;;
79480;SDS011;68944;48.262;14.208;2023-04-25T03:06:58;6.85;;;2.95;;
79480;SDS011;68944;48.262;14.208;2023-04-25T03:09:24;8.00;;;3.70;;
79480;SDS011;68944;48.262;14.208;2023-04-25T03:11:51;6.55;;;2.70;;
79480;SDS011;68944;48.262;14.208;2023-04-25T03:14:17;6.85;;;2.80;;
79480;SDS011;68944;48.262;14.208;2023-04-25T03:16:43;7.82;;;3.00;;
79480;SDS011;68944;48.262;14.208;2023-04-25T03:19:08;6.47;;;2.97;;
79480;SDS011;68944;48.262;14.208;2023-04-25T03:21:34;7.20;;;3.00;;
79480;SDS011;68944;48.262;14.208;2023-04-25T03:24:01;8.27;;;2.80;;
79480;SDS011;68944;48.262;14.208;2023-04-25T03:26:28;7.18;;;2.50;;
79480;SDS011;68944;48.262;14.208;2023-04-25T03:28:54;8.23;;;3.20;;
79480;SDS011;68944;48.262;14.208;2023-04-25T03:31:20;7.88;;;2.70;;
79480;SDS011;68944;48.262;14.208;2023-04-25T03:33:45;6.82;;;2.75;;
79480;SDS011;68944;48.262;14.208;2023-04-25T03:36:11;6.97;;;3.08;;
79480;SDS011;68944;48.262;14.208;2023-04-25T03:38:37;7.28;;;2.88;;
79480;SDS011;68944;48.262;14.208;2023-04-25T03:41:04;9.02;;;3.03;;
79480;SDS011;68944;48.262;14.208;2023-04-25T03:43:52;7.85;;;3.42;;
79480;SDS011;68944;48.262;14.208;2023-04-25T03:46:18;7.35;;;3.22;;
79480;SDS011;68944;48.262;14.208;2023-04-25T03:48:44;5.80;;;2.58;;
79480;SDS011;68944;48.262;14.208;2023-04-25T03:51:16;6.47;;;2.67;;
79480;SDS011;68944;48.262;14.208;2023-04-25T03:53:43;6.75;;;3.00;;
79480;SDS011;68944;48.262;14.208;2023-04-25T03:56:18;9.07;;;3.00;;
79480;SDS011;68944;48.262;14.208;2023-04-25T03:58:45;7.40;;;3.03;;
79480;SDS011;68944;48.262;14.208;2023-04-25T04:01:12;6.80;;;3.10;;
79480;SDS011;68944;48.262;14.208;2023-04-25T04:03:39;6.32;;;2.85;;
79480;SDS011;68944;48.262;14.208;2023-04-25T04:06:05;8.80;;;2.90;;
79480;SDS011;68944;48.262;14.208;2023-04-25T04:08:34;9.85;;;4.22;;
79480;SDS011;68944;48.262;14.208;2023-04-25T04:11:00;15.48;;;3.58;;
79480;SDS011;68944;48.262;14.208;2023-04-25T04:13:26;9.48;;;3.20;;
79480;SDS011;68944;48.262;14.208;2023-04-25T04:15:52;6.38;;;2.95;;
79480;SDS011;68944;48.262;14.208;2023-04-25T04:18:18;8.25;;;3.33;;
79480;SDS011;68944;48.262;14.208;2023-04-25T04:20:44;9.10;;;2.88;;
79480;SDS011;68944;48.262;14.208;2023-04-25T04:23:11;8.32;;;2.88;;
79480;SDS011;68944;48.262;14.208;2023-04-25T04:25:36;6.50;;;2.75;;
79480;SDS011;68944;48.262;14.208;2023-04-25T04:28:05;6.70;;;2.85;;
79480;SDS011;68944;48.262;14.208;2023-04-25T04:30:41;6.28;;;2.65;;
79480;SDS011;68944;48.262;14.208;2023-04-25T04:33:08;8.20;;;3.30;;
79480;SDS011;68944;48.262;14.208;2023-04-25T04:35:34;7.18;;;3.10;;
79480;SDS011;68944;48.262;14.208;2023-04-25T04:38:00;7.32;;;3.03;;
79480;SDS011;68944;48.262;14.208;2023-04-25T04:40:30;9.70;;;4.18;;
79480;SDS011;68944;48.262;14.208;2023-04-25T04:43:20;6.63;;;3.05;;
79480;SDS011;68944;48.262;14.208;2023-04-25T04:46:08;8.43;;;3.78;;
79480;SDS011;68944;48.262;14.208;2023-04-25T04:48:55;7.63;;;3.42;;
79480;SDS011;68944;48.262;14.208;2023-04-25T04:51:40;10.70;;;3.33;;
79480;SDS011;68944;48.262;14.208;2023-04-25T04:54:32;7.57;;;2.72;;
79480;SDS011;68944;48.262;14.208;2023-04-25T04:57:21;6.82;;;3.17;;
79480;SDS011;68944;48.262;14.208;2023-04-25T04:59:56;6.32;;;2.85;;
79480;SDS011;68944;48.262;14.208;2023-04-25T05:02:45;6.32;;;2.75;;
79480;SDS011;68944;48.262;14.208;2023-04-25T05:05:29;8.65;;;3.08;;
79480;SDS011;68944;48.262;14.208;2023-04-25T05:08:10;6.70;;;2.75;;
79480;SDS011;68944;48.262;14.208;2023-04-25T05:11:07;7.90;;;3.20;;
79480;SDS011;68944;48.262;14.208;2023-04-25T05:13:53;7.50;;;3.00;;
79480;SDS011;68944;48.262;14.208;2023-04-25T05:16:54;7.20;;;2.90;;
79480;SDS011;68944;48.262;14.208;2023-04-25T05:19:35;7.63;;;2.70;;
79480;SDS011;68944;48.262;14.208;2023-04-25T05:22:16;6.78;;;2.67;;
79480;SDS011;68944;48.262;14.208;2023-04-25T05:24:54;6.20;;;2.95;;
79480;SDS011;68944;48.262;14.208;2023-04-25T05:27:30;7.15;;;3.42;;
79480;SDS011;68944;48.262;14.208;2023-04-25T05:30:14;6.65;;;3.08;;
79480;SDS011;68944;48.262;14.208;2023-04-25T05:33:18;7.90;;;3.03;;
79480;SDS011;68944;48.262;14.208;2023-04-25T05:35:45;8.93;;;3.10;;
79480;SDS011;68944;48.262;14.208;2023-04-25T05:38:11;8.07;;;3.42;;
79480;SDS011;68944;48.262;14.208;2023-04-25T05:40:55;8.18;;;3.33;;
79480;SDS011;68944;48.262;14.208;2023-04-25T05:43:42;9.07;;;3.60;;
79480;SDS011;68944;48.262;14.208;2023-04-25T05:46:44;8.88;;;3.53;;
79480;SDS011;68944;48.262;14.208;2023-04-25T05:49:40;7.15;;;3.38;;
79480;SDS011;68944;48.262;14.208;2023-04-25T05:52:25;8.40;;;3.25;;
79480;SDS011;68944;48.262;14.208;2023-04-25T05:55:01;9.68;;;3.75;;
79480;SDS011;68944;48.262;14.208;2023-04-25T05:57:29;6.60;;;3.08;;
79480;SDS011;68944;48.262;14.208;2023-04-25T05:59:55;7.55;;;3.47;;
79480;SDS011;68944;48.262;14.208;2023-04-25T06:02:24;8.23;;;3.47;;
79480;SDS011;68944;48.262;14.208;2023-04-25T06:04:50;7.03;;;3.45;;
79480;SDS011;68944;48.262;14.208;2023-04-25T06:07:16;10.73;;;3.78;;
79480;SDS011;68944;48.262;14.208;2023-04-25T06:09:43;7.15;;;3.15;;
79480;SDS011;68944;48.262;14.208;2023-04-25T06:12:09;8.50;;;2.75;;
79480;SDS011;68944;48.262;14.208;2023-04-25T06:14:35;9.02;;;3.10;;
79480;SDS011;68944;48.262;14.208;2023-04-25T06:17:01;7.45;;;2.90;;
79480;SDS011;68944;48.262;14.208;2023-04-25T06:19:35;8.30;;;3.45;;
79480;SDS011;68944;48.262;14.208;2023-04-25T06:22:01;6.50;;;3.00;;
79480;SDS011;68944;48.262;14.208;2023-04-25T06:24:27;8.77;;;3.08;;
79480;SDS011;68944;48.262;14.208;2023-04-25T06:26:54;8.68;;;2.50;;
79480;SDS011;68944;48.262;14.208;2023-04-25T06:29:20;6.45;;;2.60;;
79480;SDS011;68944;48.262;14.208;2023-04-25T06:31:45;6.13;;;2.65;;
79480;SDS011;68944;48.262;14.208;2023-04-25T06:34:11;5.97;;;2.35;;
79480;SDS011;68944;48.262;14.208;2023-04-25T06:36:39;6.50;;;2.97;;
79480;SDS011;68944;48.262;14.208;2023-04-25T06:39:07;8.43;;;2.80;;
79480;SDS011;68944;48.262;14.208;2023-04-25T06:41:34;6.78;;;2.85;;
79480;SDS011;68944;48.262;14.208;2023-04-25T06:44:01;12.02;;;2.72;;
79480;SDS011;68944;48.262;14.208;2023-04-25T06:46:31;8.00;;;2.92;;
79480;SDS011;68944;48.262;14.208;2023-04-25T06:48:58;6.97;;;2.72;;
79480;SDS011;68944;48.262;14.208;2023-04-25T06:51:23;7.07;;;2.45;;
79480;SDS011;68944;48.262;14.208;2023-04-25T06:53:51;7.20;;;2.97;;
79480;SDS011;68944;48.262;14.208;2023-04-25T06:56:25;7.05;;;2.70;;
79480;SDS011;68944;48.262;14.208;2023-04-25T06:58:57;6.55;;;2.58;;
79480;SDS011;68944;48.262;14.208;2023-04-25T07:01:28;6.82;;;2.60;;
79480;SDS011;68944;48.262;14.208;2023-04-25T07:03:58;6.60;;;2.83;;
79480;SDS011;68944;48.262;14.208;2023-04-25T07:06:24;7.05;;;2.90;;
79480;SDS011;68944;48.262;14.208;2023-04-25T07:08:51;8.75;;;2.90;;
79480;SDS011;68944;48.262;14.208;2023-04-25T07:11:17;6.18;;;2.90;;
79480;SDS011;68944;48.262;14.208;2023-04-25T07:13:42;7.38;;;2.90;;
79480;SDS011;68944;48.262;14.208;2023-04-25T07:16:08;12.32;;;3.10;;
79480;SDS011;68944;48.262;14.208;2023-04-25T07:18:34;7.45;;;2.92;;
79480;SDS011;68944;48.262;14.208;2023-04-25T07:21:00;7.30;;;3.13;;
79480;SDS011;68944;48.262;14.208;2023-04-25T07:23:27;8.07;;;3.00;;
79480;SDS011;68944;48.262;14.208;2023-04-25T07:25:52;7.28;;;3.42;;
79480;SDS011;68944;48.262;14.208;2023-04-25T07:28:21;9.27;;;3.35;;
79480;SDS011;68944;48.262;14.208;2023-04-25T07:30:46;7.93;;;3.28;;
79480;SDS011;68944;48.262;14.208;2023-04-25T07:33:12;7.43;;;3.42;;
79480;SDS011;68944;48.262;14.208;2023-04-25T07:35:38;8.98;;;3.08;;
79480;SDS011;68944;48.262;14.208;2023-04-25T07:38:04;6.57;;;3.03;;
79480;SDS011;68944;48.262;14.208;2023-04-25T07:40:31;7.78;;;3.13;;
79480;SDS011;68944;48.262;14.208;2023-04-25T07:43:03;7.40;;;2.90;;
79480;SDS011;68944;48.262;14.208;2023-04-25T07:45:57;7.65;;;2.90;;
79480;SDS011;68944;48.262;14.208;2023-04-25T07:48:25;7.45;;;2.90;;
79480;SDS011;68944;48.262;14.208;2023-04-25T07:50:52;6.38;;;2.60;;
79480;SDS011;68944;48.262;14.208;2023-04-25T07:53:17;6.35;;;2.38;;
79480;SDS011;68944;48.262;14.208;2023-04-25T07:55:50;8.38;;;2.90;;
79480;SDS011;68944;48.262;14.208;2023-04-25T07:58:17;7.30;;;3.00;;
79480;SDS011;68944;48.262;14.208;2023-04-25T08:00:48;7.22;;;3.05;;
79480;SDS011;68944;48.262;14.208;2023-04-25T08:03:37;8.13;;;2.83;;
79480;SDS011;68944;48.262;14.208;2023-04-25T08:06:07;7.10;;;2.80;;
79480;SDS011;68944;48.262;14.208;2023-04-25T08:08:37;7.65;;;2.75;;
79480;SDS011;68944;48.262;14.208;2023-04-25T08:11:04;6.30;;;2.47;;
79480;SDS011;68944;48.262;14.208;2023-04-25T08:13:30;6.82;;;2.60;;
79480;SDS011;68944;48.262;14.208;2023-04-25T08:15:55;7.10;;;2.95;;
79480;SDS011;68944;48.262;14.208;2023-04-25T08:18:21;7.43;;;2.70;;
79480;SDS011;68944;48.262;14.208;2023-04-25T08:20:48;7.82;;;2.70;;
79480;SDS011;68944;48.262;14.208;2023-04-25T08:23:14;6.70;;;2.60;;
79480;SDS011;68944;48.262;14.208;2023-04-25T08:25:50;7.05;;;2.67;;
79480;SDS011;68944;48.262;14.208;2023-04-25T08:28:19;6.78;;;2.65;;
79480;SDS011;68944;48.262;14.208;2023-04-25T08:30:45;8.95;;;2.53;;
79480;SDS011;68944;48.262;14.208;2023-04-25T08:33:13;7.65;;;2.50;;
79480;SDS011;68944;48.262;14.208;2023-04-25T08:35:52;7.00;;;2.10;;
79480;SDS011;68944;48.262;14.208;2023-04-25T08:38:18;11.18;;;3.00;;
79480;SDS011;68944;48.262;14.208;2023-04-25T08:40:44;7.95;;;2.70;;
79480;SDS011;68944;48.262;14.208;2023-04-25T08:43:17;5.95;;;2.38;;
79480;SDS011;68944;48.262;14.208;2023-04-25T08:45:44;6.90;;;2.60;;
79480;SDS011;68944;48.262;14.208;2023-04-25T08:48:19;10.38;;;2.80;;
79480;SDS011;68944;48.262;14.208;2023-04-25T08:50:50;8.15;;;3.00;;
79480;SDS011;68944;48.262;14.208;2023-04-25T08:53:19;6.55;;;2.55;;
79480;SDS011;68944;48.262;14.208;2023-04-25T08:55:50;9.60;;;3.20;;
79480;SDS011;68944;48.262;14.208;2023-04-25T08:58:17;6.80;;;2.60;;
79480;SDS011;68944;48.262;14.208;2023-04-25T09:00:43;9.32;;;2.92;;
79480;SDS011;68944;48.262;14.208;2023-04-25T09:03:11;7.93;;;2.70;;
79480;SDS011;68944;48.262;14.208;2023-04-25T09:05:38;7.72;;;2.72;;
79480;SDS011;68944;48.262;14.208;2023-04-25T09:08:06;6.57;;;2.60;;
79480;SDS011;68944;48.262;14.208;2023-04-25T09:10:32;6.82;;;2.88;;
79480;SDS011;68944;48.262;14.208;2023-04-25T09:13:02;10.98;;;2.20;;
79480;SDS011;68944;48.262;14.208;2023-04-25T09:15:29;6.72;;;2.85;;
79480;SDS011;68944;48.262;14.208;2023-04-25T09:18:08;7.90;;;2.90;;
79480;SDS011;68944;48.262;14.208;2023-04-25T09:20:42;8.95;;;2.75;;
79480;SDS011;68944;48.262;14.208;2023-04-25T09:23:08;7.15;;;2.95;;
79480;SDS011;68944;48.262;14.208;2023-04-25T09:25:36;8.68;;;3.08;;
79480;SDS011;68944;48.262;14.208;2023-04-25T09:28:05;9.57;;;2.85;;
79480;SDS011;68944;48.262;14.208;2023-04-25T09:30:35;9.25;;;2.58;;
79480;SDS011;68944;48.262;14.208;2023-04-25T09:33:09;7.10;;;2.72;;
79480;SDS011;68944;48.262;14.208;2023-04-25T09:35:42;6.75;;;2.53;;
79480;SDS011;68944;48.262;14.208;2023-04-25T09:38:13;7.50;;;2.70;;
79480;SDS011;68944;48.262;14.208;2023-04-25T09:40:51;8.68;;;2.95;;
79480;SDS011;68944;48.262;14.208;2023-04-25T09:43:46;8.57;;;2.92;;
79480;SDS011;68944;48.262;14.208;2023-04-25T09:46:14;9.13;;;2.80;;
79480;SDS011;68944;48.262;14.208;2023-04-25T09:48:49;8.38;;;2.42;;
79480;SDS011;68944;48.262;14.208;2023-04-25T09:51:21;6.03;;;2.42;;
79480;SDS011;68944;48.262;14.208;2023-04-25T09:53:52;7.20;;;2.38;;
79480;SDS011;68944;48.262;14.208;2023-04-25T09:56:27;7.50;;;2.10;;
79480;SDS011;68944;48.262;14.208;2023-04-25T09:58:59;6.38;;;1.90;;
79480;SDS011;68944;48.262;14.208;2023-04-25T10:01:25;9.10;;;2.40;;
79480;SDS011;68944;48.262;14.208;2023-04-25T10:04:03;7.03;;;2.53;;
79480;SDS011;68944;48.262;14.208;2023-04-25T10:06:40;7.80;;;2.30;;
79480;SDS011;68944;48.262;14.208;2023-04-25T10:09:08;6.75;;;1.98;;
79480;SDS011;68944;48.262;14.208;2023-04-25T10:11:34;8.75;;;2.58;;
79480;SDS011;68944;48.262;14.208;2023-04-25T10:14:00;7.68;;;2.50;;
79480;SDS011;68944;48.262;14.208;2023-04-25T10:16:26;7.22;;;2.40;;
79480;SDS011;68944;48.262;14.208;2023-04-25T10:18:53;5.13;;;1.50;;
79480;SDS011;68944;48.262;14.208;2023-04-25T10:21:19;7.55;;;1.33;;
79480;SDS011;68944;48.262;14.208;2023-04-25T10:23:46;3.75;;;1.30;;
79480;SDS011;68944;48.262;14.208;2023-04-25T10:26:13;5.15;;;1.17;;
79480;SDS011;68944;48.262;14.208;2023-04-25T10:31:37;3.25;;;1.00;;
79480;SDS011;68944;48.262;14.208;2023-04-25T10:34:10;3.20;;;1.10;;
79480;SDS011;68944;48.262;14.208;2023-04-25T10:36:36;6.05;;;1.35;;
79480;SDS011;68944;48.262;14.208;2023-04-25T10:39:05;5.70;;;1.50;;
79480;SDS011;68944;48.262;14.208;2023-04-25T10:41:32;4.32;;;1.50;;
79480;SDS011;68944;48.262;14.208;2023-04-25T10:44:12;4.15;;;1.58;;
79480;SDS011;68944;48.262;14.208;2023-04-25T10:46:39;4.57;;;1.60;;
79480;SDS011;68944;48.262;14.208;2023-04-25T10:49:04;8.20;;;2.10;;
79480;SDS011;68944;48.262;14.208;2023-04-25T10:51:34;5.53;;;1.75;;
79480;SDS011;68944;48.262;14.208;2023-04-25T10:54:04;6.18;;;1.60;;
79480;SDS011;68944;48.262;14.208;2023-04-25T10:56:32;5.55;;;1.52;;
79480;SDS011;68944;48.262;14.208;2023-04-25T10:59:09;18.52;;;1.90;;
79480;SDS011;68944;48.262;14.208;2023-04-25T11:01:37;4.43;;;1.30;;
79480;SDS011;68944;48.262;14.208;2023-04-25T11:04:22;4.05;;;1.30;;
79480;SDS011;68944;48.262;14.208;2023-04-25T11:09:20;4.55;;;1.40;;
79480;SDS011;68944;48.262;14.208;2023-04-25T11:11:55;5.60;;;1.40;;
79480;SDS011;68944;48.262;14.208;2023-04-25T11:14:23;6.13;;;1.30;;
79480;SDS011;68944;48.262;14.208;2023-04-25T11:16:56;4.25;;;1.38;;
79480;SDS011;68944;48.262;14.208;2023-04-25T11:19:23;4.43;;;1.50;;
79480;SDS011;68944;48.262;14.208;2023-04-25T11:21:49;4.50;;;1.40;;
79480;SDS011;68944;48.262;14.208;2023-04-25T11:24:16;4.28;;;1.40;;
79480;SDS011;68944;48.262;14.208;2023-04-25T11:26:42;5.57;;;1.17;;
79480;SDS011;68944;48.262;14.208;2023-04-25T11:29:09;4.28;;;1.55;;
79480;SDS011;68944;48.262;14.208;2023-04-25T11:31:34;3.80;;;1.33;;
79480;SDS011;68944;48.262;14.208;2023-04-25T11:34:00;3.45;;;1.20;;
79480;SDS011;68944;48.262;14.208;2023-04-25T11:36:26;2.67;;;1.10;;
79480;SDS011;68944;48.262;14.208;2023-04-25T11:38:52;2.25;;;0.90;;
79480;SDS011;68944;48.262;14.208;2023-04-25T11:41:19;4.88;;;1.08;;
79480;SDS011;68944;48.262;14.208;2023-04-25T11:43:45;4.22;;;1.20;;
79480;SDS011;68944;48.262;14.208;2023-04-25T11:46:10;4.63;;;1.50;;
79480;SDS011;68944;48.262;14.208;2023-04-25T11:48:45;2.50;;;1.10;;
79480;SDS011;68944;48.262;14.208;2023-04-25T11:53:38;4.35;;;1.20;;
79480;SDS011;68944;48.262;14.208;2023-04-25T11:56:10;5.45;;;1.65;;
79480;SDS011;68944;48.262;14.208;2023-04-25T11:58:54;4.25;;;1.40;;
79480;SDS011;68944;48.262;14.208;2023-04-25T12:01:32;5.03;;;1.40;;
79480;SDS011;68944;48.262;14.208;2023-04-25T12:04:10;4.20;;;1.23;;
79480;SDS011;68944;48.262;14.208;2023-04-25T12:06:40;5.63;;;1.70;;
79480;SDS011;68944;48.262;14.208;2023-04-25T12:09:10;4.38;;;1.50;;
79480;SDS011;68944;48.262;14.208;2023-04-25T12:11:44;4.75;;;1.63;;
79480;SDS011;68944;48.262;14.208;2023-04-25T12:14:21;3.67;;;1.35;;
79480;SDS011;68944;48.262;14.208;2023-04-25T12:16:52;4.97;;;1.35;;
79480;SDS011;68944;48.262;14.208;2023-04-25T12:19:19;4.38;;;1.40;;
79480;SDS011;68944;48.262;14.208;2023-04-25T12:21:45;4.75;;;1.17;;
79480;SDS011;68944;48.262;14.208;2023-04-25T12:24:12;5.20;;;1.38;;
79480;SDS011;68944;48.262;14.208;2023-04-25T12:26:50;4.57;;;1.38;;
79480;SDS011;68944;48.262;14.208;2023-04-25T12:29:21;3.08;;;1.10;;
79480;SDS011;68944;48.262;14.208;2023-04-25T12:31:49;5.28;;;1.52;;
79480;SDS011;68944;48.262;14.208;2023-04-25T12:34:16;3.30;;;1.10;;
79480;SDS011;68944;48.262;14.208;2023-04-25T12:36:42;3.80;;;1.30;;
79480;SDS011;68944;48.262;14.208;2023-04-25T12:39:07;4.03;;;1.25;;
79480;SDS011;68944;48.262;14.208;2023-04-25T12:41:33;5.93;;;1.27;;
79480;SDS011;68944;48.262;14.208;2023-04-25T12:43:59;6.90;;;1.23;;
79480;SDS011;68944;48.262;14.208;2023-04-25T12:46:24;4.07;;;1.30;;
79480;SDS011;68944;48.262;14.208;2023-04-25T12:48:50;2.80;;;1.13;;
79480;SDS011;68944;48.262;14.208;2023-04-25T12:51:15;3.92;;;1.30;;
79480;SDS011;68944;48.262;14.208;2023-04-25T12:53:41;4.38;;;1.52;;
79480;SDS011;68944;48.262;14.208;2023-04-25T12:56:07;5.05;;;1.27;;
79480;SDS011;68944;48.262;14.208;2023-04-25T12:58:33;5.30;;;1.75;;
79480;SDS011;68944;48.262;14.208;2023-04-25T13:00:58;3.97;;;1.23;;
79480;SDS011;68944;48.262;14.208;2023-04-25T13:03:24;4.35;;;1.20;;
79480;SDS011;68944;48.262;14.208;2023-04-25T13:05:50;4.03;;;1.10;;
79480;SDS011;68944;48.262;14.208;2023-04-25T13:08:20;4.28;;;1.20;;
79480;SDS011;68944;48.262;14.208;2023-04-25T13:10:47;1.88;;;0.90;;
79480;SDS011;68944;48.262;14.208;2023-04-25T13:13:12;2.90;;;0.93;;
79480;SDS011;68944;48.262;14.208;2023-04-25T13:15:38;4.05;;;0.95;;
79480;SDS011;68944;48.262;14.208;2023-04-25T13:18:04;2.50;;;0.90;;
79480;SDS011;68944;48.262;14.208;2023-04-25T13:20:30;3.33;;;0.90;;
79480;SDS011;68944;48.262;14.208;2023-04-25T13:22:56;3.13;;;1.02;;
79480;SDS011;68944;48.262;14.208;2023-04-25T13:25:22;3.70;;;1.20;;
79480;SDS011;68944;48.262;14.208;2023-04-25T13:27:48;6.03;;;1.23;;
79480;SDS011;68944;48.262;14.208;2023-04-25T13:30:13;3.80;;;1.27;;
79480;SDS011;68944;48.262;14.208;2023-04-25T13:32:39;6.32;;;1.50;;
79480;SDS011;68944;48.262;14.208;2023-04-25T13:35:09;4.25;;;1.20;;
79480;SDS011;68944;48.262;14.208;2023-04-25T13:37:36;5.68;;;1.80;;
79480;SDS011;68944;48.262;14.208;2023-04-25T13:40:03;5.55;;;1.63;;
79480;SDS011;68944;48.262;14.208;2023-04-25T13:42:31;6.95;;;1.60;;
79480;SDS011;68944;48.262;14.208;2023-04-25T13:44:57;5.10;;;1.92;;
79480;SDS011;68944;48.262;14.208;2023-04-25T13:47:23;4.68;;;1.70;;
79480;SDS011;68944;48.262;14.208;2023-04-25T13:49:49;5.70;;;2.00;;
79480;SDS011;68944;48.262;14.208;2023-04-25T13:52:15;4.07;;;1.42;;
79480;SDS011;68944;48.262;14.208;2023-04-25T13:54:41;4.68;;;1.52;;
79480;SDS011;68944;48.262;14.208;2023-04-25T13:57:06;5.63;;;1.73;;
79480;SDS011;68944;48.262;14.208;2023-04-25T13:59:32;5.57;;;1.73;;
79480;SDS011;68944;48.262;14.208;2023-04-25T14:01:58;4.88;;;1.70;;
79480;SDS011;68944;48.262;14.208;2023-04-25T14:04:23;4.13;;;1.55;;
79480;SDS011;68944;48.262;14.208;2023-04-25T14:06:50;3.95;;;1.50;;
79480;SDS011;68944;48.262;14.208;2023-04-25T14:09:16;5.78;;;1.55;;
79480;SDS011;68944;48.262;14.208;2023-04-25T14:11:42;4.65;;;1.65;;
79480;SDS011;68944;48.262;14.208;2023-04-25T14:14:08;5.63;;;1.60;;
79480;SDS011;68944;48.262;14.208;2023-04-25T14:16:33;4.20;;;1.60;;
79480;SDS011;68944;48.262;14.208;2023-04-25T14:18:59;6.35;;;1.40;;
79480;SDS011;68944;48.262;14.208;2023-04-25T14:21:26;4.80;;;1.40;;
79480;SDS011;68944;48.262;14.208;2023-04-25T14:23:53;6.15;;;1.52;;
79480;SDS011;68944;48.262;14.208;2023-04-25T14:26:19;3.05;;;1.30;;
79480;SDS011;68944;48.262;14.208;2023-04-25T14:28:44;3.20;;;1.10;;
79480;SDS011;68944;48.262;14.208;2023-04-25T14:31:10;3.58;;;1.30;;
79480;SDS011;68944;48.262;14.208;2023-04-25T14:33:35;3.90;;;1.20;;
79480;SDS011;68944;48.262;14.208;2023-04-25T14:36:04;4.30;;;1.60;;
79480;SDS011;68944;48.262;14.208;2023-04-25T14:38:30;4.30;;;1.45;;
79480;SDS011;68944;48.262;14.208;2023-04-25T14:40:55;3.03;;;1.20;;
79480;SDS011;68944;48.262;14.208;2023-04-25T14:43:21;4.35;;;1.50;;
79480;SDS011;68944;48.262;14.208;2023-04-25T14:45:46;4.00;;;1.30;;
79480;SDS011;68944;48.262;14.208;2023-04-25T14:48:12;4.18;;;1.30;;
79480;SDS011;68944;48.262;14.208;2023-04-25T14:50:37;3.35;;;1.30;;
79480;SDS011;68944;48.262;14.208;2023-04-25T14:53:03;4.95;;;1.55;;